SBGRSBKP

Guest
Details From SBGR - Sao Paulo - Guarulhos
To SBKP - Sao Paulo Viracopos
Flight Number -
Tags generated
Created
Modified
Stats Distance 45 nm / 83 km
Max Altitude 0 ft / 0 m
Waypoints 3
Social Downloads 12
Likes 0
Share VATSIM

Download

Looking for another format? Having issues loading an existing format? Contact us
Advertisement - Login to hide

Notes

Basic altitude profile: - Ascent Rate: 2500ft/min - Ascent Speed: 250kts - Cruise Altitude: 35000ft - Cruise Speed: 420kts - Descent Rate: 1500ft/min - Descent Speed: 250kts

Route

SBGR CPN SBKP

ID Type Via Altitude Latitude Longitude Leg Dist Tot Dist Heading (true) Name
O SBGR APT - 0 ft / 0 m -23.43233˚ -46.46968˚ - 0 nm - Sao Paulo - Guarulhos
CPN VOR - 0 ft / 0 m -23.00871˚ -47.12904˚ 44 nm 44 nm 305° / 305° CAMPINAS VOR-DME
O SBKP APT - 0 ft / 0 m -23.00738˚ -47.13452˚ 0 nm 44 nm 285° / 285° Sao Paulo Viracopos

Altitude Profile

Advertisement - Login to hide

SBGR

Details ICAO SBGR (GRU)
Name Sao Paulo - Guarulhos
Region Brazil
Timezone America/Sao_Paulo (UTC-3.0)
Stats Elevation 2,459 ft / 750 m (AMSL)
Location -23.432333° -46.469675°
Runways 2
Magnetic Variation 21.466° W

METAR

SBGR 232300Z 11005KT 9999 BKN013 15/13 Q1026

Decode

TAF

TAF SBGR 231616Z 2318/2424 30005KT CAVOK TX25/2318Z TN12/2409Z BECMG 2318/2320 15005KT BECMG 2321/2323 BKN020 BECMG 2400/2402 SCT020 PROB30 2409/2411 2000 BR BKN002 BECMG 2412/2414 09005KT BECMG 2418/2420 17008KT BKN020 RMK PGQ

Decode

Departure Runways

ID Width Length Bearing (true) Bearing (mag) Surface Threshold Offset Overrun Length
09L 148 ft / 45 m 12,676 ft / 3,864 m 73.61° 95.08° Asphalt 495 ft / 151 m 0 ft / 0 m
09R 148 ft / 45 m 9,950 ft / 3,033 m 73.60° 95.07° Asphalt 0 ft / 0 m 197 ft / 60 m
27L 148 ft / 45 m 9,950 ft / 3,033 m 253.59° 275.06° Asphalt 0 ft / 0 m 197 ft / 60 m
27R 148 ft / 45 m 12,676 ft / 3,864 m 253.60° 275.07° Asphalt 197 ft / 60 m 0 ft / 0 m

SBKP

Details ICAO SBKP (VCP)
Name Sao Paulo Viracopos
Region Brazil
Timezone America/Sao_Paulo (UTC-3.0)
Stats Elevation 2,170 ft / 661 m (AMSL)
Location -23.007383° -47.134522°
Runways 1
Magnetic Variation 21.249° W

METAR

SBKP 232300Z 13014KT CAVOK 17/12 Q1023

Decode

TAF

TAF SBKP 231616Z 2318/2418 32005KT CAVOK TX25/2318Z TN11/2408Z BECMG 2318/2320 22005KT BECMG 2320/2322 18005KT BECMG 2400/2402 12006KT BECMG 2410/2412 15007KT RMK PGQ

Decode

Destination Runways

ID Width Length Bearing (true) Bearing (mag) Surface Threshold Offset Overrun Length
15 148 ft / 45 m 10,639 ft / 3,243 m 127.91° 149.16° Asphalt 0 ft / 0 m 205 ft / 62 m
33 148 ft / 45 m 10,639 ft / 3,243 m 307.90° 329.15° Asphalt 0 ft / 0 m 205 ft / 62 m

Approach Navaids

Runway Type Ident Frequency Range Bearing (true) Bearing (mag) Slope Elevation
15 Localiser IKP 110.30 MHz 18 nm / 33 km 127.95° 149.20° - 2,170 ft / 661 m (AMSL)
15 Glidescope IKP 110.30 MHz 10 nm / 19 km 127.90° 149.15° 3.00° 2,170 ft / 661 m (AMSL)

Popular Alternatives